Time;durP1;ratioP1;P1;durP2;ratioP2;P2;SDS_P1;SDS_P2;PMS_P1;PMS_P2;Temp;Humidity;BMP_temperature;BMP_pressure;BME280_temperature;BME280_humidity;BME280_pressure;Samples;Min_cycle;Max_cycle;Signal;HPM_P1;HPM_P2
2021/08/18 00:01:27;;;;;;;4.23;2.83;;;;;;;29.91;38.62;100307.11;127347;1092;64141;-86
2021/08/18 00:03:53;;;;;;;5.50;2.70;;;;;;;29.90;38.98;100300.00;127326;1092;64224;-85
2021/08/18 00:06:20;;;;;;;3.93;2.83;;;;;;;29.90;38.96;100308.17;127275;1093;64603;-85
2021/08/18 00:08:47;;;;;;;4.00;2.60;;;;;;;29.90;38.72;100310.89;127325;1093;64163;-86
2021/08/18 00:11:16;;;;;;;4.07;2.70;;;;;;;29.90;38.57;100309.00;127330;1093;64268;-86
2021/08/18 00:13:42;;;;;;;4.07;2.87;;;;;;;29.90;38.79;100305.45;127321;1093;64188;-86
2021/08/18 00:16:08;;;;;;;3.70;2.53;;;;;;;29.90;38.65;100324.49;127329;1093;64317;-86
2021/08/18 00:18:35;;;;;;;3.77;2.70;;;;;;;29.89;38.96;100323.63;127320;1093;64908;-85
2021/08/18 00:21:01;;;;;;;4.33;2.60;;;;;;;29.89;39.04;100329.06;127344;1093;64291;-85
2021/08/18 00:23:27;;;;;;;4.10;2.80;;;;;;;29.89;39.08;100339.95;127310;1093;64240;-86
2021/08/18 00:25:55;;;;;;;4.33;2.87;;;;;;;29.89;39.14;100350.00;127315;1092;64243;-85
2021/08/18 00:28:21;;;;;;;4.17;2.97;;;;;;;29.89;39.19;100359.00;127329;1093;64140;-85
2021/08/18 00:30:48;;;;;;;4.33;2.80;;;;;;;29.89;38.93;100352.72;127367;1092;64137;-85
2021/08/18 00:33:14;;;;;;;4.13;2.90;;;;;;;29.89;39.04;100344.56;127303;1093;64224;-87
2021/08/18 00:35:40;;;;;;;3.90;2.70;;;;;;;29.88;38.94;100349.13;127311;1092;64175;-85
2021/08/18 00:38:07;;;;;;;4.90;2.67;;;;;;;29.88;39.08;100343.69;127280;1093;64262;-85
2021/08/18 00:40:33;;;;;;;4.10;2.70;;;;;;;29.89;38.74;100347.28;127358;1092;64173;-86
2021/08/18 00:43:02;;;;;;;4.83;2.70;;;;;;;29.88;38.93;100340.97;127308;1093;64141;-85
2021/08/18 00:45:28;;;;;;;4.07;2.80;;;;;;;29.88;38.92;100343.69;127289;1092;64276;-85
2021/08/18 00:47:58;;;;;;;3.83;2.63;;;;;;;29.88;38.85;100351.02;127330;1093;64102;-85
2021/08/18 00:50:26;;;;;;;4.90;2.73;;;;;;;29.87;39.04;100361.06;127302;1093;64312;-86
2021/08/18 00:52:53;;;;;;;4.93;3.00;;;;;;;29.88;39.04;100378.23;127294;1093;64137;-86
2021/08/18 00:55:20;;;;;;;4.67;2.87;;;;;;;29.87;38.80;100382.84;127290;1093;64157;-85
2021/08/18 00:57:46;;;;;;;4.20;2.73;;;;;;;29.88;38.99;100386.39;127309;1092;64183;-85
2021/08/18 01:00:15;;;;;;;4.40;2.87;;;;;;;29.87;39.02;100377.39;127342;1092;64147;-86
2021/08/18 01:02:46;;;;;;;4.08;3.03;;;;;;;29.86;39.19;100383.85;127337;1093;64120;-86
2021/08/18 01:05:15;;;;;;;5.37;3.33;;;;;;;29.87;39.04;100398.30;127299;1092;64296;-85
2021/08/18 01:07:41;;;;;;;5.70;2.83;;;;;;;29.86;38.96;100402.03;127316;1092;64126;-85
2021/08/18 01:10:09;;;;;;;5.90;3.03;;;;;;;29.87;38.90;100403.73;127304;1093;64199;-86
2021/08/18 01:12:39;;;;;;;6.43;2.85;;;;;;;29.86;39.03;100394.73;127295;1092;64103;-87
2021/08/18 01:15:08;;;;;;;4.57;2.60;;;;;;;29.87;39.05;100409.17;127288;1093;64182;-85
2021/08/18 01:17:42;;;;;;;3.73;2.70;;;;;;;29.87;39.23;100401.88;127295;1093;64166;-85
2021/08/18 01:20:10;;;;;;;4.20;2.80;;;;;;;29.86;39.33;100402.89;127358;1093;64250;-86
2021/08/18 01:22:36;;;;;;;4.33;3.03;;;;;;;29.85;38.93;100403.88;127334;1093;64137;-86
2021/08/18 01:25:04;;;;;;;4.70;2.90;;;;;;;29.86;39.25;100396.59;127326;1092;64179;-86
2021/08/18 01:27:31;;;;;;;5.20;2.85;;;;;;;29.85;39.45;100394.89;127341;1092;64147;-86
2021/08/18 01:29:57;;;;;;;5.77;2.90;;;;;;;29.85;39.20;100387.56;127311;1093;64215;-85
2021/08/18 01:32:23;;;;;;;4.27;3.00;;;;;;;29.85;39.48;100389.44;127326;1093;64140;-85
2021/08/18 01:34:50;;;;;;;3.70;2.70;;;;;;;29.85;39.28;100393.00;127318;1092;64211;-86
2021/08/18 01:37:17;;;;;;;4.70;2.90;;;;;;;29.85;39.42;100394.89;127313;1092;64629;-87
2021/08/18 01:39:43;;;;;;;4.98;2.80;;;;;;;29.84;39.46;100396.73;127389;1092;64234;-86
2021/08/18 01:42:11;;;;;;;4.93;2.80;;;;;;;29.84;39.14;100388.58;127376;1093;64182;-86
2021/08/18 01:44:37;;;;;;;5.50;3.00;;;;;;;29.84;39.11;100396.73;127313;1093;64185;-86
2021/08/18 01:47:04;;;;;;;3.90;2.70;;;;;;;29.84;39.42;100388.58;127351;1093;64173;-86
2021/08/18 01:49:30;;;;;;;4.00;2.80;;;;;;;29.84;39.69;100390.46;127337;1092;64215;-85
2021/08/18 01:51:57;;;;;;;5.13;2.60;;;;;;;29.84;39.45;100395.91;127331;1093;64301;-85
2021/08/18 01:54:23;;;;;;;4.10;2.70;;;;;;;29.84;39.48;100404.06;127316;1092;64102;-85
2021/08/18 01:56:50;;;;;;;4.33;2.93;;;;;;;29.83;39.60;100396.92;127334;1093;64132;-86
2021/08/18 01:59:16;;;;;;;4.37;2.90;;;;;;;29.83;39.45;100402.36;127320;1093;64291;-86
2021/08/18 02:01:43;;;;;;;4.40;3.07;;;;;;;29.84;39.53;100398.63;127318;1093;64182;-86
2021/08/18 02:04:09;;;;;;;4.27;3.00;;;;;;;29.84;39.24;100393.19;127322;1093;64287;-86
2021/08/18 02:06:36;;;;;;;4.50;2.90;;;;;;;29.82;39.75;100404.25;127319;1092;64312;-86
2021/08/18 02:09:03;;;;;;;5.00;2.90;;;;;;;29.83;39.55;100396.92;127330;1093;64144;-86
2021/08/18 02:11:29;;;;;;;5.10;3.03;;;;;;;29.83;39.50;100400.51;127320;1092;64134;-86
2021/08/18 02:13:56;;;;;;;4.73;2.87;;;;;;;29.83;39.17;100395.06;127328;1093;64160;-86
2021/08/18 02:16:22;;;;;;;4.27;2.83;;;;;;;29.83;39.43;100400.51;127318;1092;64179;-85
2021/08/18 02:18:49;;;;;;;3.87;2.77;;;;;;;29.82;39.68;100389.78;127331;1092;64111;-86
2021/08/18 02:21:15;;;;;;;4.23;2.80;;;;;;;29.82;39.60;100390.64;127333;1092;64134;-87
2021/08/18 02:23:58;;;;;;;3.83;2.70;;;;;;;29.82;39.94;100389.78;127305;1093;64140;-86
2021/08/18 02:26:26;;;;;;;3.97;2.60;;;;;;;29.82;39.64;100401.53;127275;1093;64358;-86
2021/08/18 02:28:52;;;;;;;4.20;2.90;;;;;;;29.82;40.04;100412.41;127333;1092;64757;-85
2021/08/18 02:31:19;;;;;;;4.10;3.00;;;;;;;29.82;39.84;100423.30;127277;1093;64237;-85
2021/08/18 02:33:45;;;;;;;4.47;3.00;;;;;;;29.82;39.86;100416.98;127312;1093;64115;-86
2021/08/18 02:36:11;;;;;;;4.83;2.80;;;;;;;29.82;39.66;100411.55;127329;1093;64284;-85
2021/08/18 02:38:38;;;;;;;4.50;2.80;;;;;;;29.83;40.18;100415.97;127331;1093;64135;-85
2021/08/18 02:41:04;;;;;;;4.50;2.87;;;;;;;29.82;40.12;100408.82;127365;1093;64141;-85
2021/08/18 02:43:30;;;;;;;4.50;3.10;;;;;;;29.82;39.76;100409.69;127333;1093;64601;-84
2021/08/18 02:45:56;;;;;;;4.35;3.05;;;;;;;29.82;39.85;100404.25;127331;1093;64178;-86
2021/08/18 02:48:23;;;;;;;4.30;2.87;;;;;;;29.82;39.76;100406.10;127361;1092;64163;-86
2021/08/18 02:50:49;;;;;;;3.87;2.80;;;;;;;29.82;40.32;100406.10;127289;1093;64102;-85
2021/08/18 02:53:17;;;;;;;4.17;2.87;;;;;;;29.81;40.25;100407.98;127316;1093;64143;-85
2021/08/18 02:55:43;;;;;;;4.40;3.00;;;;;;;29.82;39.89;100411.55;127326;1092;64310;-86
2021/08/18 02:58:11;;;;;;;4.60;2.97;;;;;;;29.81;40.20;100407.98;127328;1093;64143;-86
2021/08/18 03:00:37;;;;;;;4.23;2.80;;;;;;;29.81;40.00;100402.55;127325;1092;64147;-86
2021/08/18 03:03:03;;;;;;;5.23;3.10;;;;;;;29.82;40.34;100400.66;127300;1093;64837;-86
2021/08/18 03:05:29;;;;;;;4.47;2.90;;;;;;;29.81;40.01;100398.98;127289;1092;64143;-86
2021/08/18 03:07:56;;;;;;;3.83;3.10;;;;;;;29.81;39.95;100407.98;127333;1092;64186;-86
2021/08/18 03:10:22;;;;;;;5.03;3.10;;;;;;;29.81;40.26;100409.88;127296;1092;64243;-86
2021/08/18 03:12:53;;;;;;;5.20;3.00;;;;;;;29.81;39.98;100407.15;127301;1091;64166;-86
2021/08/18 03:15:19;;;;;;;5.33;3.30;;;;;;;29.81;40.42;100402.55;127329;1092;64134;-86
2021/08/18 03:17:46;;;;;;;4.47;2.90;;;;;;;29.81;40.24;100401.71;127323;1092;64126;-86
2021/08/18 03:20:12;;;;;;;4.20;3.00;;;;;;;29.80;39.96;100395.41;127311;1093;64291;-86
2021/08/18 03:22:38;;;;;;;4.83;3.10;;;;;;;29.80;40.38;100389.95;127277;1093;64157;-87
2021/08/18 03:25:06;;;;;;;4.70;3.10;;;;;;;29.80;40.04;100384.52;127318;1093;64291;-86
2021/08/18 03:27:36;;;;;;;6.13;2.90;;;;;;;29.80;40.45;100384.52;127339;1093;63965;-86
2021/08/18 03:30:04;;;;;;;5.07;3.50;;;;;;;29.80;40.50;100383.69;127341;1093;64163;-86
2021/08/18 03:32:30;;;;;;;4.85;3.10;;;;;;;29.80;40.20;100389.95;127317;1093;64185;-86
2021/08/18 03:34:59;;;;;;;4.60;2.97;;;;;;;29.80;40.16;100391.84;127302;1093;64252;-85
2021/08/18 03:37:25;;;;;;;;;;;;;;;29.78;40.65;100380.28;127337;1091;64127;-85
2021/08/18 03:39:52;;;;;;;4.03;2.70;;;;;;;29.77;40.14;100384.88;127332;1092;64108;-86
2021/08/18 03:42:19;;;;;;;5.30;3.20;;;;;;;29.78;40.33;100386.59;127311;1093;64310;-86
2021/08/18 03:44:45;;;;;;;3.80;2.80;;;;;;;29.78;40.45;100385.72;127301;1092;64265;-86
2021/08/18 03:47:11;;;;;;;5.70;3.00;;;;;;;29.78;40.74;100396.60;127378;1093;64206;-85
2021/08/18 03:49:41;;;;;;;4.80;3.20;;;;;;;29.79;40.54;100398.30;127334;1092;64265;-86
2021/08/18 03:52:07;;;;;;;4.60;3.20;;;;;;;29.79;40.58;100399.14;127306;1093;64147;-87
2021/08/18 03:54:34;;;;;;;5.00;3.33;;;;;;;29.78;40.51;100396.60;127327;1093;64233;-86
2021/08/18 03:57:03;;;;;;;5.60;3.03;;;;;;;29.78;40.69;100399.32;127319;1093;65358;-85
2021/08/18 03:59:30;;;;;;;4.93;2.90;;;;;;;29.78;40.41;100399.32;127306;1092;64142;-86
2021/08/18 04:01:57;;;;;;;4.70;3.20;;;;;;;29.79;40.21;100390.14;127321;1093;64128;-86
2021/08/18 04:04:23;;;;;;;3.80;2.70;;;;;;;29.79;40.53;100392.86;127313;1092;64257;-85
2021/08/18 04:06:49;;;;;;;3.90;3.00;;;;;;;29.79;40.41;100385.53;127337;1093;62950;-86
2021/08/18 04:09:15;;;;;;;4.53;3.00;;;;;;;29.80;40.69;100389.95;127329;1091;64137;-85
2021/08/18 04:11:42;;;;;;;4.80;3.43;;;;;;;29.79;40.55;100385.53;127334;1093;64188;-86
2021/08/18 04:14:10;;;;;;;5.27;3.53;;;;;;;29.80;40.48;100378.24;127317;1093;64266;-87
2021/08/18 04:16:37;;;;;;;4.33;3.13;;;;;;;29.81;40.45;100388.11;127326;1092;64284;-85
2021/08/18 04:19:04;;;;;;;5.43;3.30;;;;;;;29.80;40.88;100394.56;127322;1093;64175;-85
2021/08/18 04:21:32;;;;;;;4.97;2.90;;;;;;;29.81;40.50;100388.11;127302;1093;64218;-86
2021/08/18 04:23:58;;;;;;;;;;;;;;;29.79;40.95;100390.14;127333;1093;64285;-86
2021/08/18 04:26:24;;;;;;;6.63;4.10;;;;;;;29.78;40.56;100388.44;127314;1093;64272;-86
2021/08/18 04:28:51;;;;;;;6.55;4.60;;;;;;;29.74;40.42;100383.36;127309;1092;64179;-85
2021/08/18 04:31:17;;;;;;;7.80;4.80;;;;;;;29.72;40.28;100390.00;127275;1093;64255;-84
2021/08/18 04:33:44;;;;;;;8.97;5.50;;;;;;;29.68;39.94;100381.34;127317;1092;64192;-85
2021/08/18 04:36:10;;;;;;;8.50;5.50;;;;;;;29.66;40.40;100377.97;127326;1093;64143;-85
2021/08/18 04:38:44;;;;;;;8.53;5.57;;;;;;;29.65;40.00;100386.30;127307;1093;64133;-86
2021/08/18 04:41:13;;;;;;;10.17;5.77;;;;;;;29.62;40.39;100382.06;127308;1092;64211;-85
2021/08/18 04:43:39;;;;;;;11.00;5.50;;;;;;;29.60;39.83;100386.82;127285;1092;64219;-86
2021/08/18 04:46:05;;;;;;;10.43;5.80;;;;;;;29.59;40.18;100388.70;127331;1093;64099;-87
2021/08/18 04:48:32;;;;;;;9.50;5.70;;;;;;;29.56;39.84;100383.63;127325;1093;64150;-85
2021/08/18 04:51:01;;;;;;;9.30;5.70;;;;;;;29.54;39.99;100376.67;127307;1093;64172;-85
2021/08/18 04:53:27;;;;;;;7.80;5.83;;;;;;;29.52;39.64;100381.42;127316;1092;64137;-85
2021/08/18 04:55:57;;;;;;;11.37;6.23;;;;;;;29.50;39.52;100376.16;127326;1093;64109;-85
2021/08/18 04:58:23;;;;;;;13.40;5.93;;;;;;;29.49;39.61;100379.06;127311;1092;64138;-85
2021/08/18 05:00:52;;;;;;;11.30;6.03;;;;;;;29.48;39.80;100383.63;127268;1092;64211;-86
2021/08/18 05:03:19;;;;;;;9.77;5.90;;;;;;;29.47;39.42;100390.12;127295;1092;64076;-87
2021/08/18 05:05:45;;;;;;;12.43;6.17;;;;;;;29.46;39.39;100385.70;127336;1092;64145;-85
2021/08/18 05:08:11;;;;;;;9.17;5.83;;;;;;;29.47;40.15;100381.09;127327;1093;64214;-85
2021/08/18 05:10:37;;;;;;;11.03;6.00;;;;;;;29.45;39.54;100381.27;127295;1093;64147;-85
2021/08/18 05:13:08;;;;;;;12.33;6.20;;;;;;;29.47;39.23;100390.12;127329;1093;64303;-86
2021/08/18 05:15:34;;;;;;;8.63;5.60;;;;;;;29.46;39.32;100387.55;127319;1093;64227;-86
2021/08/18 05:18:01;;;;;;;15.07;5.67;;;;;;;29.47;39.48;100390.12;127326;1092;64134;-86
2021/08/18 05:20:30;;;;;;;10.20;5.67;;;;;;;29.48;39.56;100390.95;127282;1093;64185;-86
2021/08/18 05:22:55;;;;;;;;;;;;;;;29.47;39.37;100392.84;127333;1092;64156;-85
2021/08/18 05:25:22;;;;;;;8.63;5.23;;;;;;;29.48;39.73;100396.39;127301;1092;64674;-86
2021/08/18 05:27:49;;;;;;;9.83;5.97;;;;;;;29.47;39.81;100390.12;127318;1093;64275;-86
2021/08/18 05:30:16;;;;;;;13.50;6.50;;;;;;;29.48;39.80;100399.95;127303;1093;64179;-86
2021/08/18 05:32:43;;;;;;;10.63;6.43;;;;;;;29.49;39.60;100396.21;127298;1093;64307;-86
2021/08/18 05:35:10;;;;;;;13.20;6.87;;;;;;;29.47;39.45;100392.84;127331;1092;64102;-86
2021/08/18 05:37:37;;;;;;;12.13;6.87;;;;;;;29.42;39.92;100389.79;127334;1092;64143;-86
2021/08/18 05:40:04;;;;;;;12.60;6.33;;;;;;;29.40;39.88;100400.84;127290;1092;64041;-85
2021/08/18 05:42:30;;;;;;;10.43;6.57;;;;;;;29.39;39.65;100396.42;127211;1092;64195;-84
2021/08/18 05:44:57;;;;;;;11.47;6.60;;;;;;;29.36;39.55;100401.35;127199;1093;64179;-84
2021/08/18 05:47:24;;;;;;;11.23;6.10;;;;;;;29.34;39.75;100401.53;127090;1093;64003;-85
2021/08/18 05:49:52;;;;;;;19.13;7.13;;;;;;;29.35;39.84;100396.93;127138;1093;65186;-85
2021/08/18 05:52:20;;;;;;;14.93;6.53;;;;;;;29.36;39.84;100407.66;127227;1092;64142;-85
2021/08/18 05:54:47;;;;;;;12.70;6.40;;;;;;;29.35;39.97;100418.68;127001;1092;64307;-84
2021/08/18 05:57:13;;;;;;;13.47;6.67;;;;;;;29.36;39.61;100414.95;126809;1093;64143;-84
2021/08/18 05:59:39;;;;;;;10.70;6.30;;;;;;;29.37;39.96;100417.48;126819;1093;64295;-84
2021/08/18 06:02:05;;;;;;;11.17;6.50;;;;;;;29.36;40.06;100429.41;127009;1092;64217;-86
2021/08/18 06:04:32;;;;;;;13.50;6.03;;;;;;;29.35;39.97;100426.84;127084;1093;62122;-84
2021/08/18 06:06:58;;;;;;;12.80;6.13;;;;;;;29.38;40.03;100426.51;126991;1093;64189;-84
2021/08/18 06:09:25;;;;;;;10.70;5.93;;;;;;;29.41;39.65;100437.03;127175;1092;64099;-85
2021/08/18 06:11:52;;;;;;;11.70;6.20;;;;;;;29.42;39.67;100438.73;127200;1093;64317;-86
2021/08/18 06:14:18;;;;;;;10.73;5.90;;;;;;;29.44;39.88;100442.11;127255;1093;64206;-86
2021/08/18 06:16:45;;;;;;;13.17;6.60;;;;;;;29.45;39.81;100434.81;127249;1093;64208;-85
2021/08/18 06:19:11;;;;;;;11.60;6.23;;;;;;;29.49;39.45;100444.33;127244;1093;64189;-86
2021/08/18 06:21:39;;;;;;;9.47;5.87;;;;;;;29.49;39.97;100453.31;127256;1092;64285;-86
2021/08/18 06:26:46;;;;;;;9.40;6.47;;;;;;;29.50;39.90;100443.31;127235;1092;64165;-86
2021/08/18 06:29:36;;;;;;;9.70;6.30;;;;;;;29.52;39.86;100443.97;127129;1093;64166;-86
2021/08/18 06:32:05;;;;;;;9.60;5.73;;;;;;;29.54;39.74;100450.92;127002;1097;64148;-86
2021/08/18 06:34:32;;;;;;;18.40;6.10;;;;;;;29.57;40.02;100450.57;127018;1096;64377;-84
2021/08/18 06:37:01;;;;;;;8.93;6.13;;;;;;;29.59;39.72;100453.11;126823;1096;64171;-84
2021/08/18 06:39:32;;;;;;;10.37;6.23;;;;;;;29.62;39.88;100465.52;127051;1097;64572;-86
2021/08/18 06:42:00;;;;;;;11.33;5.90;;;;;;;29.62;39.65;100458.22;126951;1096;62650;-84
2021/08/18 06:44:27;;;;;;;11.13;5.78;;;;;;;29.63;39.42;100464.50;126965;1096;64304;-85
2021/08/18 06:46:53;;;;;;;11.00;5.70;;;;;;;29.64;39.79;100464.31;126900;1096;64213;-84
2021/08/18 06:49:47;;;;;;;9.00;6.20;;;;;;;29.66;39.40;100465.00;126960;1095;64284;-84
2021/08/18 06:52:13;;;;;;;10.37;6.00;;;;;;;29.67;40.01;100479.44;126976;1100;64400;-85
2021/08/18 06:54:39;;;;;;;11.03;6.20;;;;;;;29.67;39.29;100488.47;126372;1100;64115;-85
2021/08/18 06:57:06;;;;;;;9.13;6.07;;;;;;;29.69;39.36;100493.73;126461;1100;64201;-85
2021/08/18 06:59:32;;;;;;;10.70;6.23;;;;;;;29.67;39.52;100493.91;126345;1098;64864;-85
2021/08/18 07:02:00;;;;;;;11.57;5.83;;;;;;;29.66;39.49;100502.22;126425;1100;64151;-86
2021/08/18 07:04:26;;;;;;;8.15;6.10;;;;;;;29.65;39.81;100508.70;126508;1100;64295;-85
2021/08/18 07:06:52;;;;;;;9.00;5.60;;;;;;;29.65;39.38;100503.27;126274;1098;64150;-85
2021/08/18 07:09:24;;;;;;;11.17;6.20;;;;;;;29.64;39.84;100499.67;126508;1095;64153;-85
2021/08/18 07:11:50;;;;;;;8.97;6.40;;;;;;;29.65;39.70;100508.70;127006;1097;64156;-86
2021/08/18 07:14:17;;;;;;;9.03;6.13;;;;;;;29.64;39.67;100505.12;127033;1097;64160;-86
2021/08/18 07:16:43;;;;;;;9.47;6.40;;;;;;;29.65;39.33;100500.55;127093;1099;64281;-86
2021/08/18 07:19:12;;;;;;;9.10;5.77;;;;;;;29.65;39.40;100497.83;127076;1097;64123;-86
2021/08/18 07:21:39;;;;;;;7.77;6.40;;;;;;;29.65;39.75;100500.55;127043;1097;64736;-85
2021/08/18 07:24:34;;;;;;;7.73;5.73;;;;;;;29.65;39.86;100493.22;127068;1098;64086;-86
2021/08/18 07:27:03;;;;;;;9.10;5.83;;;;;;;29.66;39.81;100488.62;126405;1098;64147;-85
2021/08/18 07:29:29;;;;;;;8.87;6.00;;;;;;;29.67;39.55;100493.91;126541;1097;64172;-84
2021/08/18 07:31:58;;;;;;;8.97;6.40;;;;;;;29.68;39.50;100490.14;127053;1096;64177;-86
2021/08/18 07:34:24;;;;;;;8.20;6.03;;;;;;;29.68;39.38;100492.86;127119;1096;64201;-85
2021/08/18 07:36:51;;;;;;;8.37;5.73;;;;;;;29.70;39.53;100503.59;127020;1096;64285;-86
2021/08/18 07:39:18;;;;;;;8.87;6.00;;;;;;;29.69;39.35;100499.17;127053;1095;64249;-84
2021/08/18 07:41:45;;;;;;;12.23;6.37;;;;;;;29.68;39.43;100501.02;126924;1096;64247;-84
2021/08/18 07:44:11;;;;;;;9.83;5.97;;;;;;;29.70;39.56;100500.88;127170;1095;64166;-86
2021/08/18 07:46:38;;;;;;;7.77;6.07;;;;;;;29.68;39.49;100492.86;127064;1096;62834;-84
2021/08/18 07:49:04;;;;;;;8.80;5.85;;;;;;;29.69;39.44;100496.45;126978;1097;64253;-86
2021/08/18 07:51:30;;;;;;;10.47;5.70;;;;;;;29.68;39.59;100498.30;126974;1097;64295;-86
2021/08/18 07:53:57;;;;;;;9.05;6.10;;;;;;;29.68;39.78;100497.47;126971;1097;64175;-85
2021/08/18 07:56:23;;;;;;;8.80;5.60;;;;;;;29.67;39.27;100491.19;127040;1096;64208;-86
2021/08/18 07:58:50;;;;;;;12.87;5.70;;;;;;;29.68;39.54;100489.31;126935;1096;64163;-84
2021/08/18 08:01:16;;;;;;;9.73;6.40;;;;;;;29.68;39.70;100487.42;126930;1096;61898;-84
2021/08/18 08:03:42;;;;;;;11.47;6.30;;;;;;;29.70;39.21;100487.28;126736;1093;64359;-84
2021/08/18 08:06:08;;;;;;;9.90;6.23;;;;;;;29.69;39.30;100480.13;127040;1093;64163;-85
2021/08/18 08:08:59;;;;;;;10.53;6.20;;;;;;;29.67;39.58;100477.59;127213;1093;64253;-85
2021/08/18 08:11:26;;;;;;;9.97;5.87;;;;;;;29.66;39.52;100477.73;127033;1095;64408;-86
2021/08/18 08:13:52;;;;;;;9.67;5.97;;;;;;;29.66;39.60;100481.33;127181;1096;64137;-86
2021/08/18 08:16:18;;;;;;;8.03;5.70;;;;;;;29.65;39.58;100489.67;127163;1096;64132;-86
2021/08/18 08:18:45;;;;;;;9.13;6.17;;;;;;;29.64;39.53;100487.96;126931;1096;64734;-84
2021/08/18 08:21:12;;;;;;;12.67;6.10;;;;;;;29.63;39.40;100495.28;126825;1096;64339;-84
2021/08/18 08:23:38;;;;;;;11.17;6.30;;;;;;;29.63;39.57;100483.53;126834;1096;64272;-84
2021/08/18 08:26:05;;;;;;;9.57;6.07;;;;;;;29.62;39.40;100490.86;126808;1096;64352;-84
2021/08/18 08:28:31;;;;;;;8.17;5.80;;;;;;;29.62;39.75;100479.11;126915;1096;64111;-84
2021/08/18 08:30:58;;;;;;;10.50;6.10;;;;;;;29.61;39.31;100480.16;126900;1096;62914;-85
2021/08/18 08:33:25;;;;;;;11.30;5.67;;;;;;;29.59;39.48;100472.14;127053;1096;64272;-85
2021/08/18 08:35:51;;;;;;;11.03;5.97;;;;;;;29.59;39.87;100473.02;126911;1094;64237;-85
2021/08/18 08:38:43;;;;;;;11.23;6.07;;;;;;;29.61;39.47;100472.00;126834;1095;64231;-84
2021/08/18 08:41:10;;;;;;;15.10;5.87;;;;;;;29.61;39.36;100478.27;126845;1099;64147;-84
2021/08/18 08:43:38;;;;;;;11.85;5.85;;;;;;;29.62;39.73;100481.83;126208;1098;64629;-83
2021/08/18 08:46:06;;;;;;;9.43;5.73;;;;;;;29.63;39.52;100491.70;126256;1100;64890;-84
2021/08/18 08:48:33;;;;;;;9.63;6.55;;;;;;;29.63;39.87;100483.53;126475;1100;63742;-84
2021/08/18 08:51:05;;;;;;;10.43;6.20;;;;;;;29.63;39.61;100487.13;127118;1095;64243;-85
2021/08/18 08:53:57;;;;;;;12.47;6.37;;;;;;;29.64;39.49;100483.36;127079;1097;64154;-85
2021/08/18 08:56:24;;;;;;;15.97;6.33;;;;;;;29.64;39.73;100479.80;126366;1098;64150;-84
2021/08/18 08:58:50;;;;;;;7.90;5.80;;;;;;;29.64;39.62;100471.64;126346;1100;64176;-85
2021/08/18 09:01:16;;;;;;;12.37;6.20;;;;;;;29.64;39.46;100479.80;126363;1098;64342;-85
2021/08/18 09:03:46;;;;;;;13.90;6.80;;;;;;;29.64;39.31;100477.08;126344;1098;64693;-85
2021/08/18 09:06:19;;;;;;;8.47;5.50;;;;;;;29.64;39.57;100479.80;126390;1098;64290;-85
2021/08/18 09:08:52;;;;;;;13.83;6.00;;;;;;;29.64;39.83;100479.80;126378;1100;64300;-85
2021/08/18 09:11:20;;;;;;;11.23;5.90;;;;;;;29.63;39.85;100481.69;126341;1099;64307;-84
2021/08/18 09:14:11;;;;;;;12.05;6.03;;;;;;;29.63;39.93;100483.53;126361;1098;64182;-85
2021/08/18 09:16:38;;;;;;;11.63;6.20;;;;;;;29.62;39.95;100477.27;125988;1103;64317;-85
2021/08/18 09:19:05;;;;;;;11.63;6.70;;;;;;;29.62;39.48;100479.98;126239;1100;64236;-84
2021/08/18 09:21:38;;;;;;;9.27;5.77;;;;;;;29.62;39.68;100470.95;126289;1100;64288;-85
2021/08/18 09:24:23;;;;;;;11.77;6.33;;;;;;;29.61;39.76;100470.12;126344;1098;64144;-85
2021/08/18 09:26:55;;;;;;;13.20;6.70;;;;;;;29.61;39.91;100475.55;126396;1098;64296;-85
2021/08/18 09:29:31;;;;;;;10.90;6.00;;;;;;;29.61;39.53;100472.84;126363;1098;64255;-85
2021/08/18 09:32:20;;;;;;;13.30;6.10;;;;;;;29.62;40.01;100463.66;126301;1098;64166;-85
2021/08/18 09:34:58;;;;;;;9.40;6.00;;;;;;;29.61;39.49;100469.28;127094;1096;64144;-85
2021/08/18 09:37:24;;;;;;;13.07;6.17;;;;;;;29.61;39.49;100459.23;127047;1098;64147;-85
2021/08/18 09:39:51;;;;;;;9.67;5.97;;;;;;;29.61;39.78;100451.08;127076;1097;64281;-85
2021/08/18 09:42:32;;;;;;;11.37;6.30;;;;;;;29.59;39.62;100440.38;127131;1095;64289;-85
2021/08/18 09:45:15;;;;;;;10.43;6.40;;;;;;;29.59;39.81;100432.22;127137;1100;64234;-86
2021/08/18 09:47:51;;;;;;;8.73;5.77;;;;;;;29.59;39.81;100425.91;127075;1098;64372;-85
2021/08/18 09:50:18;;;;;;;10.60;6.10;;;;;;;29.58;39.82;100429.68;127094;1100;64123;-85
2021/08/18 09:52:44;;;;;;;11.80;6.20;;;;;;;29.58;39.88;100438.67;127065;1098;64355;-85
2021/08/18 09:55:11;;;;;;;8.13;5.87;;;;;;;29.58;39.61;100435.95;127283;1093;64272;-85
2021/08/18 09:57:41;;;;;;;10.80;6.40;;;;;;;29.58;39.67;100430.52;127317;1093;64342;-85
2021/08/18 10:00:08;;;;;;;9.27;6.20;;;;;;;29.58;39.87;100430.52;127253;1093;64162;-85
2021/08/18 10:02:34;;;;;;;10.37;5.67;;;;;;;29.59;39.87;100436.79;127273;1092;64095;-85
2021/08/18 10:05:02;;;;;;;11.43;6.20;;;;;;;29.59;39.72;100437.66;127330;1093;64006;-86
2021/08/18 10:07:30;;;;;;;11.13;6.10;;;;;;;29.59;39.96;100443.09;127299;1092;64234;-85
2021/08/18 10:09:56;;;;;;;9.57;5.53;;;;;;;29.59;39.84;100434.94;127329;1093;64141;-85
2021/08/18 10:12:27;;;;;;;10.17;5.90;;;;;;;29.59;40.04;100439.52;127309;1092;64284;-85
2021/08/18 10:14:53;;;;;;;8.83;5.93;;;;;;;29.61;39.79;100440.20;127327;1093;64152;-86
2021/08/18 10:17:42;;;;;;;12.00;6.10;;;;;;;29.61;40.11;100450.24;127246;1093;64182;-85
2021/08/18 10:20:09;;;;;;;9.03;6.10;;;;;;;29.60;39.67;100449.38;127045;1096;64175;-85
2021/08/18 10:22:39;;;;;;;8.70;6.43;;;;;;;29.61;39.79;100445.64;127068;1096;64227;-85
2021/08/18 10:25:36;;;;;;;11.47;6.17;;;;;;;29.62;40.12;100449.20;127146;1096;64396;-86
2021/08/18 10:28:08;;;;;;;9.50;6.10;;;;;;;29.61;40.20;100445.64;127151;1095;64108;-86
2021/08/18 10:30:57;;;;;;;9.13;6.00;;;;;;;29.62;40.11;100447.34;127091;1096;64169;-86
2021/08/18 10:33:53;;;;;;;8.17;5.73;;;;;;;29.62;39.86;100446.47;127085;1096;64163;-85
2021/08/18 10:36:41;;;;;;;8.50;5.80;;;;;;;29.63;39.73;100437.30;127087;1095;64140;-85
2021/08/18 10:39:39;;;;;;;8.08;6.28;;;;;;;29.63;39.72;100443.61;127101;1096;64163;-85
2021/08/18 10:42:14;;;;;;;7.80;6.20;;;;;;;29.64;40.00;100437.13;126313;1099;64230;-85
2021/08/18 10:44:48;;;;;;;10.03;5.63;;;;;;;29.65;39.96;100440.70;126336;1100;64327;-84
2021/08/18 10:47:33;;;;;;;9.47;5.83;;;;;;;29.66;39.91;100426.06;126317;1100;64092;-85
2021/08/18 10:50:23;;;;;;;9.30;5.63;;;;;;;29.67;40.13;100427.77;126310;1099;64653;-84
2021/08/18 10:52:50;;;;;;;8.27;5.77;;;;;;;29.66;39.84;100426.06;126375;1100;64157;-84
2021/08/18 10:55:30;;;;;;;8.23;6.10;;;;;;;29.68;39.79;100422.14;126400;1100;64269;-84
2021/08/18 10:58:02;;;;;;;8.73;6.00;;;;;;;29.68;40.04;100413.98;126935;1095;64274;-86
2021/08/18 11:00:38;;;;;;;8.10;5.83;;;;;;;29.70;39.98;100416.55;127162;1095;64112;-85
2021/08/18 11:03:16;;;;;;;8.57;5.90;;;;;;;29.71;40.05;100423.66;127156;1095;64221;-86
2021/08/18 11:05:49;;;;;;;7.47;5.80;;;;;;;29.71;40.24;100420.94;127137;1096;64218;-85
2021/08/18 11:08:19;;;;;;;10.00;5.83;;;;;;;29.71;39.96;100410.93;127174;1096;64312;-86
2021/08/18 11:10:57;;;;;;;9.97;6.50;;;;;;;29.72;39.74;100404.44;126954;1095;64208;-85
2021/08/18 11:14:01;;;;;;;8.80;6.05;;;;;;;29.73;39.94;100408.03;126864;1096;64179;-85
2021/08/18 11:16:31;;;;;;;8.77;6.03;;;;;;;29.72;39.81;100407.16;127027;1094;64298;-85
2021/08/18 11:19:01;;;;;;;8.47;5.70;;;;;;;29.73;40.11;100400.70;127126;1093;64147;-86
2021/08/18 11:21:28;;;;;;;9.00;5.73;;;;;;;29.74;40.21;100396.13;127246;1093;64187;-85
2021/08/18 11:24:01;;;;;;;9.27;6.07;;;;;;;29.74;40.20;100396.97;127232;1093;64770;-86
2021/08/18 11:26:35;;;;;;;8.70;6.13;;;;;;;29.75;39.88;100392.36;127314;1093;64240;-85